Martinsville, Ohio
Current Conditions -  °F | °C
As of 7:54 AM on Saturday 25 Oct 2014 (Local Time) from KILN Reporting Station
Haze Haze  
Wind Chill: 42°   Ceiling: Unl
Heat Index: 45°   Visibility: 6mi
Dew Point: 42°   Wind: 6mph
Humidity: 90%   Direction: 210°SSW
Pressure: 29.99"   Gusts: NA
Location:  39.32°N, 83.81°W
Report Text: KILN 251154Z AUTO 21005KT 6SM BR CLR 07/06 A2999 RMK AO2 SLP163 T00720056 10083 20067 58006
Loading
Personal Weather Stations






























Interactive Weather Map
Tropical Storm Tracking
New forecast layout! Learn more

10-Day Weather Forecast

Advertisements
Track Severe Weather on mobile